createdAt,value
2022-10-28T00:00:24.558Z,94715.19
2022-10-28T00:01:27.548Z,94720.00
2022-10-28T00:02:29.071Z,94718.03
2022-10-28T00:03:30.590Z,94718.03
2022-10-28T00:04:32.253Z,94711.22
2022-10-28T00:05:34.226Z,94718.97
2022-10-28T00:06:36.802Z,94715.41
2022-10-28T00:07:38.227Z,94718.34
2022-10-28T00:08:40.306Z,94716.44
2022-10-28T00:09:41.712Z,94712.03
2022-10-28T00:10:43.130Z,94716.66
2022-10-28T00:11:44.574Z,94713.06
2022-10-28T00:12:46.097Z,94708.56
2022-10-28T00:13:48.251Z,94713.28
2022-10-28T00:14:49.716Z,94711.44
2022-10-28T00:15:51.135Z,94714.38
2022-10-28T00:16:53.979Z,94716.59
2022-10-28T00:17:55.849Z,94707.44
2022-10-28T00:18:58.611Z,94715.72
2022-10-28T00:20:00.058Z,94714.31
2022-10-28T00:21:02.113Z,94716.16
2022-10-28T00:22:03.570Z,94709.53
2022-10-28T00:23:05.257Z,94715.13
2022-10-28T00:24:08.168Z,94709.38
2022-10-28T00:25:10.368Z,94706.72
2022-10-28T00:26:13.849Z,94707.06
2022-10-28T00:27:15.270Z,94717.13
2022-10-28T00:28:16.684Z,94711.22
2022-10-28T00:29:19.505Z,94715.78
2022-10-28T00:30:21.054Z,94710.63
2022-10-28T00:31:24.883Z,94706.63
2022-10-28T00:32:29.859Z,94707.81
2022-10-28T00:33:31.424Z,94704.09
2022-10-28T00:34:32.841Z,94706.16
2022-10-28T00:35:34.278Z,94703.38
2022-10-28T00:36:37.840Z,94705.78
2022-10-28T00:37:39.228Z,94706.78
2022-10-28T00:38:41.932Z,94707.63
2022-10-28T00:39:43.360Z,94713.34
2022-10-28T00:40:44.781Z,94710.69
2022-10-28T00:41:48.426Z,94706.41
2022-10-28T00:42:49.971Z,94708.69
2022-10-28T00:43:53.170Z,94703.13
2022-10-28T00:44:57.250Z,94703.72
2022-10-28T00:45:58.716Z,94703.72
2022-10-28T00:47:00.277Z,94702.94
2022-10-28T00:48:04.590Z,94700.53
2022-10-28T00:49:14.965Z,94701.00
2022-10-28T00:50:30.030Z,94704.41
2022-10-28T00:51:35.287Z,94708.69
2022-10-28T00:52:37.515Z,94705.41
2022-10-28T00:53:42.516Z,94708.69
2022-10-28T00:54:45.546Z,94707.16
2022-10-28T00:55:48.890Z,94710.25
2022-10-28T00:56:53.468Z,94707.44
2022-10-28T00:57:56.715Z,94702.44
2022-10-28T00:59:01.087Z,94711.94
2022-10-28T01:00:06.013Z,94705.97
2022-10-28T01:01:07.560Z,94705.41
2022-10-28T01:02:09.321Z,94705.41
2022-10-28T01:03:12.184Z,94702.94
2022-10-28T01:04:13.771Z,94708.50
2022-10-28T01:05:18.931Z,94704.66
2022-10-28T01:06:20.391Z,94703.06
2022-10-28T01:07:22.324Z,94695.75
2022-10-28T01:08:23.736Z,94699.16
2022-10-28T01:10:46.071Z,94700.22
2022-10-28T01:12:00.501Z,94701.63
2022-10-28T01:13:11.198Z,94703.00
2022-10-28T01:14:20.325Z,94698.59
2022-10-28T01:15:31.860Z,94694.84
2022-10-28T01:16:41.999Z,94689.53
2022-10-28T01:17:56.155Z,94695.69
2022-10-28T01:19:18.409Z,94698.47
2022-10-28T01:20:56.335Z,94698.78
2022-10-28T01:22:13.450Z,94693.16
2022-10-28T01:23:21.277Z,94694.19
2022-10-28T01:24:48.574Z,94689.88
2022-10-28T01:26:05.601Z,94691.53
2022-10-28T01:27:38.432Z,94685.41
2022-10-28T01:29:16.473Z,94683.63
2022-10-28T01:30:19.953Z,94683.44
2022-10-28T01:31:38.006Z,94684.06
2022-10-28T01:32:50.627Z,94686.47
2022-10-28T01:33:58.289Z,94682.22
2022-10-28T01:35:09.580Z,94690.56
2022-10-28T01:36:15.060Z,94684.44
2022-10-28T01:37:23.566Z,94686.06
2022-10-28T01:38:32.544Z,94685.91
2022-10-28T01:39:41.509Z,94681.34
2022-10-28T01:40:50.763Z,94680.72
2022-10-28T01:41:58.365Z,94683.63
2022-10-28T01:43:08.814Z,94680.97
2022-10-28T01:44:21.768Z,94682.50
2022-10-28T01:45:28.626Z,94686.78
2022-10-28T01:46:39.680Z,94686.16
2022-10-28T01:47:50.219Z,94687.47
2022-10-28T01:48:55.926Z,94687.91
2022-10-28T01:50:02.395Z,94687.91
2022-10-28T01:51:08.254Z,94688.28
2022-10-28T01:52:13.595Z,94686.34
2022-10-28T01:53:20.738Z,94684.72
2022-10-28T01:54:25.143Z,94680.81
2022-10-28T01:55:33.784Z,94681.41
2022-10-28T01:56:37.793Z,94679.56
2022-10-28T01:57:41.914Z,94678.00
2022-10-28T01:58:44.559Z,94673.91
2022-10-28T01:59:48.174Z,94676.59
2022-10-28T02:00:50.885Z,94674.53
2022-10-28T02:01:54.174Z,94676.81
2022-10-28T02:02:56.420Z,94679.47
2022-10-28T02:03:58.457Z,94675.66
2022-10-28T02:05:22.406Z,94676.34
2022-10-28T02:06:27.422Z,94672.00
2022-10-28T02:07:28.930Z,94671.69
2022-10-28T02:08:42.434Z,94675.16
2022-10-28T02:10:01.031Z,94676.34
2022-10-28T02:11:23.982Z,94680.66
2022-10-28T02:12:28.669Z,94683.25
2022-10-28T02:13:39.297Z,94682.44
2022-10-28T02:14:58.937Z,94678.75
2022-10-28T02:16:07.390Z,94677.75
2022-10-28T02:17:21.006Z,94669.50
2022-10-28T02:18:30.236Z,94670.53
2022-10-28T02:19:35.585Z,94670.59
2022-10-28T02:20:43.373Z,94666.53
2022-10-28T02:21:52.559Z,94669.09
2022-10-28T02:23:01.432Z,94666.84
2022-10-28T02:24:10.601Z,94662.78
2022-10-28T02:25:17.016Z,94668.72
2022-10-28T02:26:24.500Z,94663.78
2022-10-28T02:27:33.396Z,94665.44
2022-10-28T02:28:41.302Z,94664.25
2022-10-28T02:29:49.440Z,94667.94
2022-10-28T02:30:56.116Z,94660.75
2022-10-28T02:32:01.699Z,94665.13
2022-10-28T02:33:09.663Z,94662.22
2022-10-28T02:34:16.537Z,94660.63
2022-10-28T02:35:24.265Z,94660.19
2022-10-28T02:36:29.631Z,94657.97
2022-10-28T02:37:34.084Z,94664.09
2022-10-28T02:38:39.408Z,94661.81
2022-10-28T02:39:45.035Z,94667.78
2022-10-28T02:42:00.457Z,94665.28
2022-10-28T02:43:05.743Z,94664.75
2022-10-28T02:44:10.176Z,94670.22
2022-10-28T02:45:15.411Z,94666.38
2022-10-28T02:46:18.911Z,94664.97
2022-10-28T02:47:26.309Z,94661.72
2022-10-28T02:48:33.565Z,94673.50
2022-10-28T02:49:38.161Z,94663.97
2022-10-28T02:50:44.553Z,94664.19
2022-10-28T02:51:51.042Z,94660.72
2022-10-28T02:52:58.702Z,94663.00
2022-10-28T02:54:04.146Z,94662.63
2022-10-28T02:55:06.835Z,94661.59
2022-10-28T02:56:09.753Z,94663.69
2022-10-28T02:57:15.008Z,94662.09
2022-10-28T02:58:16.555Z,94659.19
2022-10-28T02:59:18.230Z,94661.25
2022-10-28T03:00:21.998Z,94657.84
2022-10-28T03:01:23.636Z,94646.41
2022-10-28T03:02:26.026Z,94650.13
2022-10-28T03:03:29.083Z,94647.47
2022-10-28T03:04:30.889Z,94653.38
2022-10-28T03:05:32.356Z,94661.94
2022-10-28T03:06:33.834Z,94654.41
2022-10-28T03:07:35.279Z,94652.41
2022-10-28T03:08:36.879Z,94649.34
2022-10-28T03:09:38.289Z,94651.19
2022-10-28T03:10:39.724Z,94651.63
2022-10-28T03:11:41.180Z,94651.00
2022-10-28T03:12:42.628Z,94649.53
2022-10-28T03:13:44.050Z,94648.16
2022-10-28T03:14:45.457Z,94651.75
2022-10-28T03:15:47.211Z,94651.94
2022-10-28T03:16:48.682Z,94652.34
2022-10-28T03:17:50.165Z,94652.81
2022-10-28T03:18:54.220Z,94647.44
2022-10-28T03:19:55.716Z,94645.84
2022-10-28T03:20:59.019Z,94642.75
2022-10-28T03:22:00.746Z,94644.13
2022-10-28T03:23:02.150Z,94651.13
2022-10-28T03:24:03.969Z,94654.16
2022-10-28T03:25:05.903Z,94653.56
2022-10-28T03:26:07.355Z,94659.06
2022-10-28T03:27:08.814Z,94650.66
2022-10-28T03:28:10.272Z,94657.38
2022-10-28T03:29:11.747Z,94650.44
2022-10-28T03:30:13.244Z,94646.56
2022-10-28T03:31:14.729Z,94653.91
2022-10-28T03:32:16.210Z,94646.16
2022-10-28T03:33:17.719Z,94646.75
2022-10-28T03:34:20.480Z,94644.31
2022-10-28T03:35:21.878Z,94647.72
2022-10-28T03:36:23.333Z,94649.34
2022-10-28T03:37:24.840Z,94653.03
2022-10-28T03:38:26.280Z,94647.47
2022-10-28T03:39:27.739Z,94653.38
2022-10-28T03:40:29.192Z,94652.94
2022-10-28T03:41:30.772Z,94648.66
2022-10-28T03:42:32.241Z,94655.19
2022-10-28T03:43:33.679Z,94646.41
2022-10-28T03:44:35.159Z,94650.50
2022-10-28T03:45:36.581Z,94647.00
2022-10-28T03:46:38.032Z,94644.34
2022-10-28T03:47:39.907Z,94638.25
2022-10-28T03:48:41.350Z,94645.53
2022-10-28T03:49:44.153Z,94640.06
2022-10-28T03:50:45.608Z,94645.97
2022-10-28T03:51:47.072Z,94643.03
2022-10-28T03:52:48.496Z,94640.56
2022-10-28T03:53:49.969Z,94642.81
2022-10-28T03:54:51.420Z,94644.34
2022-10-28T03:55:53.304Z,94642.72
2022-10-28T03:56:54.726Z,94649.25
2022-10-28T03:57:56.401Z,94648.66
2022-10-28T03:58:58.243Z,94646.88
2022-10-28T03:59:59.706Z,94648.66
2022-10-28T04:01:01.216Z,94647.25
2022-10-28T04:02:02.759Z,94650.50
2022-10-28T04:03:04.401Z,94641.56
2022-10-28T04:04:06.379Z,94646.41
2022-10-28T04:05:09.417Z,94652.72
2022-10-28T04:06:10.852Z,94652.78
2022-10-28T04:07:12.268Z,94651.97
2022-10-28T04:08:13.790Z,94653.53
2022-10-28T04:09:15.249Z,94659.22
2022-10-28T04:10:17.258Z,94654.75
2022-10-28T04:11:18.666Z,94658.34
2022-10-28T04:12:20.159Z,94653.44
2022-10-28T04:13:21.618Z,94645.91
2022-10-28T04:14:23.042Z,94652.25
2022-10-28T04:15:24.588Z,94646.69
2022-10-28T04:16:26.090Z,94648.72
2022-10-28T04:17:27.538Z,94654.06
2022-10-28T04:18:29.246Z,94645.53
2022-10-28T04:19:30.721Z,94643.25
2022-10-28T04:20:33.981Z,94649.31
2022-10-28T04:21:35.497Z,94646.50
2022-10-28T04:22:36.959Z,94646.19
2022-10-28T04:23:38.441Z,94645.38
2022-10-28T04:24:39.848Z,94649.84
2022-10-28T04:25:41.287Z,94636.00
2022-10-28T04:26:42.744Z,94641.59
2022-10-28T04:27:44.533Z,94639.03
2022-10-28T04:28:46.001Z,94639.66
2022-10-28T04:29:47.451Z,94629.19
2022-10-28T04:30:48.940Z,94632.53
2022-10-28T04:31:52.285Z,94633.34
2022-10-28T04:32:53.945Z,94629.16
2022-10-28T04:33:55.405Z,94625.41
2022-10-28T04:34:56.909Z,94627.03
2022-10-28T04:35:59.700Z,94634.16
2022-10-28T04:37:01.159Z,94635.63
2022-10-28T04:38:02.606Z,94630.38
2022-10-28T04:39:04.356Z,94632.28
2022-10-28T04:40:07.852Z,94638.19
2022-10-28T04:41:12.491Z,94640.03
2022-10-28T04:42:13.993Z,94640.03
2022-10-28T04:43:15.571Z,94647.06
2022-10-28T04:44:16.988Z,94647.50
2022-10-28T04:45:18.473Z,94643.66
2022-10-28T04:46:19.921Z,94649.75
2022-10-28T04:47:21.339Z,94648.19
2022-10-28T04:48:22.779Z,94652.50
2022-10-28T04:49:24.216Z,94648.72
2022-10-28T04:50:26.245Z,94640.19
2022-10-28T04:51:29.006Z,94641.19
2022-10-28T04:52:30.467Z,94652.19
2022-10-28T04:53:31.945Z,94647.06
2022-10-28T04:54:33.424Z,94645.22
2022-10-28T04:55:34.836Z,94648.34
2022-10-28T04:56:36.298Z,94644.66
2022-10-28T04:57:37.729Z,94649.53
2022-10-28T04:58:39.122Z,94654.13
2022-10-28T04:59:40.562Z,94650.28
2022-10-28T05:00:42.037Z,94651.16
2022-10-28T05:01:43.547Z,94642.97
2022-10-28T05:02:46.143Z,94645.16
2022-10-28T05:03:47.758Z,94645.84
2022-10-28T05:04:49.233Z,94645.44
2022-10-28T05:05:50.731Z,94641.69
2022-10-28T05:06:54.059Z,94645.63
2022-10-28T05:07:55.914Z,94643.34
2022-10-28T05:08:57.574Z,94647.59
2022-10-28T05:09:58.981Z,94651.06
2022-10-28T05:11:00.497Z,94652.13
2022-10-28T05:12:01.925Z,94650.16
2022-10-28T05:13:03.343Z,94645.66
2022-10-28T05:14:04.779Z,94650.47
2022-10-28T05:15:07.909Z,94654.25
2022-10-28T05:16:09.425Z,94652.66
2022-10-28T05:17:11.596Z,94652.22
2022-10-28T05:18:13.206Z,94653.34
2022-10-28T05:19:14.698Z,94649.88
2022-10-28T05:20:17.552Z,94651.34
2022-10-28T05:21:19.082Z,94653.41
2022-10-28T05:22:21.845Z,94650.16
2022-10-28T05:23:27.073Z,94651.06
2022-10-28T05:24:30.051Z,94641.69
2022-10-28T05:25:31.557Z,94647.00
2022-10-28T05:26:32.989Z,94647.81
2022-10-28T05:27:34.540Z,94646.91
2022-10-28T05:28:36.008Z,94645.00
2022-10-28T05:29:37.473Z,94638.06
2022-10-28T05:30:38.923Z,94642.56
2022-10-28T05:31:40.372Z,94643.22
2022-10-28T05:32:41.979Z,94631.16
2022-10-28T05:33:43.449Z,94641.97
2022-10-28T05:34:44.907Z,94640.38
2022-10-28T05:35:46.564Z,94634.22
2022-10-28T05:36:48.001Z,94646.25
2022-10-28T05:37:50.852Z,94632.97
2022-10-28T05:38:52.251Z,94637.25
2022-10-28T05:39:54.245Z,94639.53
2022-10-28T05:40:55.667Z,94629.31
2022-10-28T05:41:57.302Z,94642.13
2022-10-28T05:42:58.847Z,94638.44
2022-10-28T05:44:00.267Z,94643.22
2022-10-28T05:45:01.753Z,94638.50
2022-10-28T05:46:03.282Z,94639.63
2022-10-28T05:47:04.758Z,94646.06
2022-10-28T05:48:06.942Z,94632.59
2022-10-28T05:49:08.986Z,94641.97
2022-10-28T05:50:10.961Z,94633.94
2022-10-28T05:51:12.369Z,94645.16
2022-10-28T05:52:13.751Z,94641.38
2022-10-28T05:53:16.805Z,94634.56
2022-10-28T05:54:18.548Z,94646.31
2022-10-28T05:55:21.705Z,94646.09
2022-10-28T05:56:23.117Z,94638.53
2022-10-28T05:57:24.516Z,94634.78
2022-10-28T05:58:25.983Z,94640.91
2022-10-28T05:59:27.441Z,94637.81
2022-10-28T06:00:29.627Z,94643.13
2022-10-28T06:03:02.284Z,94639.97
2022-10-28T06:04:04.257Z,94644.72
2022-10-28T06:05:06.268Z,94633.75
2022-10-28T06:06:07.999Z,94644.13
2022-10-28T06:07:09.658Z,94633.75
2022-10-28T06:08:11.678Z,94635.59
2022-10-28T06:09:14.448Z,94636.44
2022-10-28T06:10:16.011Z,94644.84
2022-10-28T06:11:15.975Z,94643.19
2022-10-28T06:12:17.434Z,94638.34
2022-10-28T06:13:19.346Z,94639.72
2022-10-28T06:14:20.798Z,94644.47
2022-10-28T06:15:22.557Z,94642.63
2022-10-28T06:16:24.046Z,94648.03
2022-10-28T06:17:25.601Z,94646.47
2022-10-28T06:18:27.111Z,94645.84
2022-10-28T06:19:28.552Z,94648.47
2022-10-28T06:20:30.648Z,94645.84
2022-10-28T06:21:32.122Z,94652.78
2022-10-28T06:22:33.534Z,94659.84
2022-10-28T06:23:35.329Z,94655.38
2022-10-28T06:24:38.132Z,94652.91
2022-10-28T06:25:39.591Z,94656.69
2022-10-28T06:26:41.599Z,94660.38
2022-10-28T06:27:43.188Z,94664.59
2022-10-28T06:28:45.986Z,94658.72
2022-10-28T06:29:47.514Z,94661.31
2022-10-28T06:30:48.994Z,94655.69
2022-10-28T06:31:50.433Z,94661.94
2022-10-28T06:32:54.408Z,94658.84
2022-10-28T06:33:55.836Z,94660.63
2022-10-28T06:34:57.689Z,94655.53
2022-10-28T06:35:59.824Z,94666.16
2022-10-28T06:37:01.258Z,94661.53
2022-10-28T06:38:05.971Z,94668.69
2022-10-28T06:39:10.806Z,94663.78
2022-10-28T06:40:13.664Z,94669.97
2022-10-28T06:41:15.076Z,94668.84
2022-10-28T06:42:16.634Z,94668.84
2022-10-28T06:43:18.148Z,94663.41
2022-10-28T06:44:19.595Z,94671.16
2022-10-28T06:45:21.021Z,94673.50
2022-10-28T06:46:22.463Z,94671.44
2022-10-28T06:47:25.519Z,94671.53
2022-10-28T06:48:26.973Z,94677.09
2022-10-28T06:49:28.455Z,94676.38
2022-10-28T06:50:32.869Z,94674.94
2022-10-28T06:51:34.416Z,94672.47
2022-10-28T06:52:35.926Z,94672.66
2022-10-28T06:53:37.420Z,94672.47
2022-10-28T06:54:38.901Z,94666.31
2022-10-28T06:55:41.715Z,94666.00
2022-10-28T06:56:43.203Z,94665.66
2022-10-28T06:57:44.682Z,94666.00
2022-10-28T06:58:49.606Z,94665.94
2022-10-28T06:59:51.026Z,94669.19
2022-10-28T07:00:52.647Z,94670.97
2022-10-28T07:01:54.173Z,94675.69
2022-10-28T07:02:56.528Z,94676.38
2022-10-28T07:03:58.236Z,94681.69
2022-10-28T07:04:59.662Z,94677.47
2022-10-28T07:06:01.711Z,94679.69
2022-10-28T07:07:03.449Z,94686.81
2022-10-28T07:08:05.596Z,94688.25
2022-10-28T07:09:07.701Z,94689.09
2022-10-28T07:10:09.387Z,94695.00
2022-10-28T07:11:12.138Z,94690.22
2022-10-28T07:12:13.573Z,94686.63
2022-10-28T07:13:15.003Z,94693.75
2022-10-28T07:14:16.463Z,94688.16
2022-10-28T07:15:17.945Z,94697.75
2022-10-28T07:16:19.400Z,94690.97
2022-10-28T07:17:20.886Z,94691.09
2022-10-28T07:18:23.053Z,94689.69
2022-10-28T07:19:24.493Z,94684.13
2022-10-28T07:20:27.880Z,94688.53
2022-10-28T07:21:29.366Z,94690.72
2022-10-28T07:22:30.880Z,94690.31
2022-10-28T07:23:32.404Z,94688.28
2022-10-28T07:24:33.920Z,94690.31
2022-10-28T07:25:35.503Z,94690.56
2022-10-28T07:26:38.323Z,94692.25
2022-10-28T07:27:39.855Z,94696.13
2022-10-28T07:28:41.301Z,94696.94
2022-10-28T07:29:42.805Z,94700.34
2022-10-28T07:30:44.361Z,94696.69
2022-10-28T07:31:45.838Z,94693.81
2022-10-28T07:32:48.213Z,94703.63
2022-10-28T07:33:51.877Z,94705.06
2022-10-28T07:34:53.304Z,94706.91
2022-10-28T07:35:54.978Z,94701.59
2022-10-28T07:36:56.558Z,94703.38
2022-10-28T07:37:58.084Z,94700.09
2022-10-28T07:38:59.571Z,94704.00
2022-10-28T07:40:00.993Z,94701.94
2022-10-28T07:41:04.720Z,94708.75
2022-10-28T07:42:07.511Z,94705.84
2022-10-28T07:43:08.971Z,94695.59
2022-10-28T07:44:10.568Z,94706.66
2022-10-28T07:45:12.095Z,94703.19
2022-10-28T07:46:13.916Z,94700.53
2022-10-28T07:47:15.391Z,94702.75
2022-10-28T07:48:16.828Z,94710.75
2022-10-28T07:49:18.258Z,94700.09
2022-10-28T07:50:19.825Z,94711.41
2022-10-28T07:51:21.262Z,94708.09
2022-10-28T07:52:23.022Z,94704.59
2022-10-28T07:53:27.764Z,94705.09
2022-10-28T07:54:30.366Z,94710.59
2022-10-28T07:55:31.787Z,94710.59
2022-10-28T07:56:33.212Z,94710.66
2022-10-28T07:57:36.202Z,94703.56
2022-10-28T07:58:37.641Z,94706.22
2022-10-28T07:59:39.158Z,94710.97
2022-10-28T08:00:40.652Z,94710.31
2022-10-28T08:01:42.255Z,94705.84
2022-10-28T08:02:43.907Z,94709.88
2022-10-28T08:03:45.646Z,94713.47
2022-10-28T08:04:47.209Z,94700.91
2022-10-28T08:05:48.649Z,94703.56
2022-10-28T08:06:50.152Z,94704.53
2022-10-28T08:07:51.935Z,94702.44
2022-10-28T08:08:55.742Z,94698.53
2022-10-28T08:09:57.164Z,94698.16
2022-10-28T08:10:58.611Z,94700.03
2022-10-28T08:12:00.184Z,94694.53
2022-10-28T08:13:03.136Z,94698.09
2022-10-28T08:14:04.573Z,94696.25
2022-10-28T08:15:06.840Z,94690.34
2022-10-28T08:16:09.225Z,94690.13
2022-10-28T08:17:10.924Z,94693.38
2022-10-28T08:18:12.378Z,94694.72
2022-10-28T08:19:14.015Z,94695.19
2022-10-28T08:20:15.725Z,94701.41
2022-10-28T08:21:17.194Z,94696.94
2022-10-28T08:22:18.733Z,94696.22
2022-10-28T08:23:20.189Z,94697.09
2022-10-28T08:24:21.630Z,94696.75
2022-10-28T08:25:23.053Z,94691.44
2022-10-28T08:26:24.527Z,94699.25
2022-10-28T08:27:25.944Z,94698.38
2022-10-28T08:28:28.966Z,94698.63
2022-10-28T08:29:30.498Z,94695.00
2022-10-28T08:30:40.314Z,94692.59
2022-10-28T08:31:42.238Z,94694.97
2022-10-28T08:32:43.884Z,94703.44
2022-10-28T08:33:45.364Z,94693.44
2022-10-28T08:34:46.790Z,94692.25
2022-10-28T08:35:51.245Z,94697.16
2022-10-28T08:36:52.940Z,94688.38
2022-10-28T08:37:54.640Z,94692.41
2022-10-28T08:38:56.630Z,94693.72
2022-10-28T08:39:58.226Z,94692.56
2022-10-28T08:41:12.664Z,94701.34
2022-10-28T08:42:33.276Z,94690.72
2022-10-28T08:43:57.220Z,94686.56
2022-10-28T08:45:20.034Z,94702.25
2022-10-28T08:46:30.688Z,94697.88
2022-10-28T08:47:42.226Z,94700.50
2022-10-28T08:48:43.965Z,94691.69
2022-10-28T08:49:51.310Z,94690.44
2022-10-28T08:50:57.871Z,94694.16
2022-10-28T08:52:05.370Z,94699.88
2022-10-28T08:53:14.662Z,94692.94
2022-10-28T08:54:20.552Z,94689.91
2022-10-28T08:55:28.262Z,94689.50
2022-10-28T08:56:33.478Z,94692.53
2022-10-28T08:57:38.776Z,94686.56
2022-10-28T08:58:43.936Z,94688.22
2022-10-28T08:59:46.353Z,94691.19
2022-10-28T09:00:52.445Z,94687.50
2022-10-28T09:01:59.718Z,94697.16
2022-10-28T09:03:16.176Z,94685.38
2022-10-28T09:04:26.414Z,94691.50
2022-10-28T09:05:28.135Z,94693.22
2022-10-28T09:06:30.553Z,94690.47
2022-10-28T09:07:35.636Z,94688.66
2022-10-28T09:08:40.461Z,94689.06
2022-10-28T09:09:42.257Z,94687.91
2022-10-28T09:10:58.994Z,94699.56
2022-10-28T09:12:12.857Z,94699.41
2022-10-28T09:13:24.025Z,94698.47
2022-10-28T09:14:47.627Z,94692.16
2022-10-28T09:15:58.629Z,94697.16
2022-10-28T09:17:15.043Z,94693.47
2022-10-28T09:18:19.167Z,94693.25
2022-10-28T09:19:35.036Z,94697.25
2022-10-28T09:20:50.363Z,94694.88
2022-10-28T09:22:05.876Z,94695.16
2022-10-28T09:23:18.984Z,94695.16
2022-10-28T09:24:25.630Z,94700.06
2022-10-28T09:25:36.451Z,94692.34
2022-10-28T09:26:49.030Z,94693.94
2022-10-28T09:28:04.430Z,94701.63
2022-10-28T09:29:31.303Z,94697.22
2022-10-28T09:30:46.004Z,94699.06
2022-10-28T09:31:52.140Z,94699.50
2022-10-28T09:33:05.589Z,94697.63
2022-10-28T09:34:26.832Z,94703.38
2022-10-28T09:35:33.677Z,94708.06
2022-10-28T09:36:39.520Z,94702.94
2022-10-28T09:37:45.702Z,94701.94
2022-10-28T09:38:50.931Z,94702.72
2022-10-28T09:39:56.373Z,94702.13
2022-10-28T09:41:01.893Z,94703.38
2022-10-28T09:42:04.452Z,94699.69
2022-10-28T09:43:11.415Z,94704.78
2022-10-28T09:44:18.813Z,94709.09
2022-10-28T09:45:24.155Z,94703.97
2022-10-28T09:46:32.019Z,94709.47
2022-10-28T09:47:40.414Z,94709.53
2022-10-28T09:48:45.816Z,94714.44
2022-10-28T09:49:50.244Z,94708.16
2022-10-28T09:50:55.277Z,94700.34
2022-10-28T09:52:06.672Z,94703.19
2022-10-28T09:53:12.645Z,94708.31
2022-10-28T09:54:14.663Z,94705.03
2022-10-28T09:55:20.119Z,94712.88
2022-10-28T09:56:21.736Z,94713.28
2022-10-28T09:57:29.320Z,94706.13
2022-10-28T09:58:32.501Z,94712.09
2022-10-28T09:59:34.464Z,94710.47
2022-10-28T10:00:36.948Z,94707.41
2022-10-28T10:01:41.996Z,94703.84
2022-10-28T10:02:44.458Z,94707.34
2022-10-28T10:03:48.726Z,94708.53
2022-10-28T10:04:50.197Z,94711.25
2022-10-28T10:05:56.347Z,94709.84
2022-10-28T10:07:02.201Z,94715.81
2022-10-28T10:08:05.256Z,94712.72
2022-10-28T10:09:17.576Z,94713.97
2022-10-28T10:10:24.423Z,94720.09
2022-10-28T10:11:32.880Z,94713.16
2022-10-28T10:12:34.426Z,94714.19
2022-10-28T10:13:39.131Z,94717.47
2022-10-28T10:14:44.360Z,94709.69
2022-10-28T10:15:50.968Z,94713.41
2022-10-28T10:16:57.176Z,94713.19
2022-10-28T10:18:00.324Z,94718.50
2022-10-28T10:19:05.017Z,94711.34
2022-10-28T10:20:08.984Z,94714.00
2022-10-28T10:21:10.455Z,94711.97
2022-10-28T10:22:29.517Z,94713.00
2022-10-28T10:23:33.551Z,94705.81
2022-10-28T10:24:36.037Z,94712.00
2022-10-28T10:25:37.477Z,94715.69
2022-10-28T10:26:38.943Z,94717.13
2022-10-28T10:27:40.515Z,94709.34
2022-10-28T10:28:45.627Z,94721.66
2022-10-28T10:29:49.088Z,94708.13
2022-10-28T10:30:53.111Z,94712.41
2022-10-28T10:32:13.434Z,94715.69
2022-10-28T10:33:20.673Z,94706.88
2022-10-28T10:34:24.355Z,94711.59
2022-10-28T10:35:29.206Z,94709.34
2022-10-28T10:36:31.052Z,94715.47
2022-10-28T10:37:35.874Z,94705.84
2022-10-28T10:38:38.923Z,94703.34
2022-10-28T10:39:40.511Z,94705.81
2022-10-28T10:40:49.495Z,94695.13
2022-10-28T10:41:51.016Z,94700.44
2022-10-28T10:43:13.110Z,94700.00
2022-10-28T10:44:30.652Z,94705.13
2022-10-28T10:45:32.093Z,94695.47
2022-10-28T10:46:33.549Z,94697.66
2022-10-28T10:47:36.626Z,94697.34
2022-10-28T10:48:38.627Z,94701.75
2022-10-28T10:49:40.059Z,94694.56
2022-10-28T10:50:45.241Z,94697.78
2022-10-28T10:51:51.788Z,94698.63
2022-10-28T10:52:57.043Z,94700.59
2022-10-28T10:53:59.245Z,94705.22
2022-10-28T10:55:05.023Z,94703.66
2022-10-28T10:56:09.286Z,94692.25
2022-10-28T10:57:16.674Z,94696.81
2022-10-28T10:58:21.219Z,94695.88
2022-10-28T10:59:27.722Z,94695.97
2022-10-28T11:00:35.019Z,94691.78
2022-10-28T11:01:39.830Z,94692.50
2022-10-28T11:02:49.023Z,94694.06
2022-10-28T11:05:08.281Z,94683.72
2022-10-28T11:06:24.589Z,94690.25
2022-10-28T11:07:28.630Z,94683.63
2022-10-28T11:08:36.635Z,94686.59
2022-10-28T11:09:40.920Z,94684.53
2022-10-28T11:10:42.463Z,94677.38
2022-10-28T11:11:44.622Z,94677.16
2022-10-28T11:12:51.927Z,94683.09
2022-10-28T11:14:03.950Z,94675.34
2022-10-28T11:15:22.018Z,94671.13
2022-10-28T11:16:24.336Z,94672.75
2022-10-28T11:17:27.764Z,94677.41
2022-10-28T11:18:40.222Z,94674.84
2022-10-28T11:19:41.880Z,94670.72
2022-10-28T11:20:53.400Z,94673.53
2022-10-28T11:22:21.742Z,94669.00
2022-10-28T11:23:38.504Z,94663.13
2022-10-28T11:25:05.283Z,94668.19
2022-10-28T11:26:11.126Z,94668.38
2022-10-28T11:27:24.823Z,94669.34
2022-10-28T11:28:45.376Z,94675.06
2022-10-28T11:29:47.754Z,94669.59
2022-10-28T11:31:00.219Z,94659.59
2022-10-28T11:32:29.716Z,94659.69
2022-10-28T11:33:39.823Z,94662.50
2022-10-28T11:35:03.141Z,94663.03
2022-10-28T11:36:15.367Z,94659.84
2022-10-28T11:37:26.309Z,94660.41
2022-10-28T11:38:45.672Z,94655.38
2022-10-28T11:40:02.540Z,94655.38
2022-10-28T11:41:28.137Z,94656.91
2022-10-28T11:42:36.363Z,94655.41
2022-10-28T11:43:52.178Z,94654.00
2022-10-28T11:45:01.350Z,94651.41
2022-10-28T11:46:09.050Z,94652.88
2022-10-28T11:47:29.329Z,94653.00
2022-10-28T11:48:43.481Z,94648.47
2022-10-28T11:50:09.118Z,94655.47
2022-10-28T11:51:25.843Z,94650.28
2022-10-28T11:52:44.257Z,94651.47
2022-10-28T11:54:13.734Z,94643.41
2022-10-28T11:55:28.980Z,94642.09
2022-10-28T11:56:36.826Z,94647.69
2022-10-28T11:57:49.715Z,94644.66
2022-10-28T11:59:03.444Z,94642.34
2022-10-28T12:00:31.910Z,94642.00
2022-10-28T12:01:44.648Z,94646.44
2022-10-28T12:03:03.410Z,94640.13
2022-10-28T12:04:20.350Z,94635.97
2022-10-28T12:05:25.428Z,94639.00
2022-10-28T12:06:50.792Z,94633.63
2022-10-28T12:08:19.193Z,94635.94
2022-10-28T12:09:33.307Z,94632.34
2022-10-28T12:10:42.889Z,94629.66
2022-10-28T12:12:06.967Z,94627.34
2022-10-28T12:13:20.613Z,94628.63
2022-10-28T12:14:29.718Z,94628.72
2022-10-28T12:15:36.833Z,94620.44
2022-10-28T12:16:44.312Z,94624.88
2022-10-28T12:17:52.708Z,94634.41
2022-10-28T12:18:59.720Z,94633.13
2022-10-28T12:20:10.356Z,94635.00
2022-10-28T12:21:19.614Z,94627.66
2022-10-28T12:22:27.076Z,94631.06
2022-10-28T12:23:31.821Z,94632.44
2022-10-28T12:24:36.739Z,94625.78
2022-10-28T12:25:41.896Z,94635.22
2022-10-28T12:26:47.580Z,94638.25
2022-10-28T12:27:51.175Z,94624.63
2022-10-28T12:28:58.029Z,94634.75
2022-10-28T12:30:05.887Z,94622.88
2022-10-28T12:31:20.347Z,94631.66
2022-10-28T12:32:27.098Z,94630.59
2022-10-28T12:33:36.146Z,94632.13
2022-10-28T12:34:42.934Z,94635.34
2022-10-28T12:35:51.354Z,94634.06
2022-10-28T12:36:58.409Z,94639.22
2022-10-28T12:38:06.371Z,94633.50
2022-10-28T12:39:15.040Z,94641.34
2022-10-28T12:40:20.510Z,94639.22
2022-10-28T12:41:25.957Z,94639.22
2022-10-28T12:42:31.118Z,94635.59
2022-10-28T12:43:36.741Z,94640.84
2022-10-28T12:44:39.475Z,94631.19
2022-10-28T12:45:42.337Z,94630.81
2022-10-28T12:46:52.281Z,94628.72
2022-10-28T12:48:00.288Z,94628.97
2022-10-28T12:49:09.770Z,94624.66
2022-10-28T12:50:17.400Z,94634.66